sensor_id;sensor_type;location;lat;lon;timestamp;temperature;humidity
67549;DHT22;54382;53.524;49.326;2022-07-06T00:00:04;19.00;48.00
67549;DHT22;54382;53.524;49.326;2022-07-06T00:02:32;19.00;47.90
67549;DHT22;54382;53.524;49.326;2022-07-06T00:04:58;19.00;47.90
67549;DHT22;54382;53.524;49.326;2022-07-06T00:07:25;18.90;48.10
67549;DHT22;54382;53.524;49.326;2022-07-06T00:09:52;18.90;48.20
67549;DHT22;54382;53.524;49.326;2022-07-06T00:12:18;18.90;48.40
67549;DHT22;54382;53.524;49.326;2022-07-06T00:14:45;18.90;48.50
67549;DHT22;54382;53.524;49.326;2022-07-06T00:17:12;18.80;48.50
67549;DHT22;54382;53.524;49.326;2022-07-06T00:19:38;18.80;48.60
67549;DHT22;54382;53.524;49.326;2022-07-06T00:22:05;18.80;48.70
67549;DHT22;54382;53.524;49.326;2022-07-06T00:24:31;18.80;48.90
67549;DHT22;54382;53.524;49.326;2022-07-06T00:26:58;18.80;49.10
67549;DHT22;54382;53.524;49.326;2022-07-06T00:29:25;18.80;49.20
67549;DHT22;54382;53.524;49.326;2022-07-06T00:31:51;18.80;49.30
67549;DHT22;54382;53.524;49.326;2022-07-06T00:34:18;18.80;49.40
67549;DHT22;54382;53.524;49.326;2022-07-06T00:36:44;18.80;49.40
67549;DHT22;54382;53.524;49.326;2022-07-06T00:39:11;18.80;49.30
67549;DHT22;54382;53.524;49.326;2022-07-06T00:41:38;18.80;49.60
67549;DHT22;54382;53.524;49.326;2022-07-06T00:44:08;18.90;49.80
67549;DHT22;54382;53.524;49.326;2022-07-06T00:46:36;18.90;49.80
67549;DHT22;54382;53.524;49.326;2022-07-06T00:49:03;19.10;49.90
67549;DHT22;54382;53.524;49.326;2022-07-06T00:51:31;19.20;49.80
67549;DHT22;54382;53.524;49.326;2022-07-06T00:54:04;19.30;49.60
67549;DHT22;54382;53.524;49.326;2022-07-06T00:56:31;19.40;49.40
67549;DHT22;54382;53.524;49.326;2022-07-06T00:59:02;19.60;49.10
67549;DHT22;54382;53.524;49.326;2022-07-06T01:01:29;19.70;48.70
67549;DHT22;54382;53.524;49.326;2022-07-06T01:03:56;19.90;48.20
67549;DHT22;54382;53.524;49.326;2022-07-06T01:06:22;20.10;48.10
67549;DHT22;54382;53.524;49.326;2022-07-06T01:08:49;20.20;47.90
67549;DHT22;54382;53.524;49.326;2022-07-06T01:11:17;20.40;47.50
67549;DHT22;54382;53.524;49.326;2022-07-06T01:13:46;20.60;47.30
67549;DHT22;54382;53.524;49.326;2022-07-06T01:16:13;20.80;46.80
67549;DHT22;54382;53.524;49.326;2022-07-06T01:18:41;20.90;46.40
67549;DHT22;54382;53.524;49.326;2022-07-06T01:21:12;21.10;46.20
67549;DHT22;54382;53.524;49.326;2022-07-06T01:23:44;21.30;46.00
67549;DHT22;54382;53.524;49.326;2022-07-06T01:26:17;21.50;46.30
67549;DHT22;54382;53.524;49.326;2022-07-06T01:28:46;21.70;45.30
67549;DHT22;54382;53.524;49.326;2022-07-06T01:31:20;21.90;44.90
67549;DHT22;54382;53.524;49.326;2022-07-06T01:33:52;22.10;44.40
67549;DHT22;54382;53.524;49.326;2022-07-06T01:36:20;22.40;44.10
67549;DHT22;54382;53.524;49.326;2022-07-06T01:38:51;22.60;43.80
67549;DHT22;54382;53.524;49.326;2022-07-06T01:41:19;22.90;43.00
67549;DHT22;54382;53.524;49.326;2022-07-06T01:43:47;23.10;42.80
67549;DHT22;54382;53.524;49.326;2022-07-06T01:46:14;23.30;42.70
67549;DHT22;54382;53.524;49.326;2022-07-06T01:48:40;23.50;42.30
67549;DHT22;54382;53.524;49.326;2022-07-06T01:51:07;23.70;42.00
67549;DHT22;54382;53.524;49.326;2022-07-06T01:53:34;24.00;41.80
67549;DHT22;54382;53.524;49.326;2022-07-06T01:56:01;24.20;41.50
67549;DHT22;54382;53.524;49.326;2022-07-06T01:58:28;24.40;41.20
67549;DHT22;54382;53.524;49.326;2022-07-06T02:00:55;24.60;41.00
67549;DHT22;54382;53.524;49.326;2022-07-06T02:03:21;24.90;40.80
67549;DHT22;54382;53.524;49.326;2022-07-06T02:05:48;25.00;40.60
67549;DHT22;54382;53.524;49.326;2022-07-06T02:08:15;25.30;40.50
67549;DHT22;54382;53.524;49.326;2022-07-06T02:10:42;25.40;40.30
67549;DHT22;54382;53.524;49.326;2022-07-06T02:13:08;25.70;40.20
67549;DHT22;54382;53.524;49.326;2022-07-06T02:15:35;26.00;40.20
67549;DHT22;54382;53.524;49.326;2022-07-06T02:18:01;26.30;40.10
67549;DHT22;54382;53.524;49.326;2022-07-06T02:20:28;26.60;39.90
67549;DHT22;54382;53.524;49.326;2022-07-06T02:22:55;27.00;39.60
67549;DHT22;54382;53.524;49.326;2022-07-06T02:25:22;27.30;39.20
67549;DHT22;54382;53.524;49.326;2022-07-06T02:27:49;27.60;38.70
67549;DHT22;54382;53.524;49.326;2022-07-06T02:30:15;28.00;38.10
67549;DHT22;54382;53.524;49.326;2022-07-06T02:32:42;28.30;37.70
67549;DHT22;54382;53.524;49.326;2022-07-06T02:35:09;28.60;37.20
67549;DHT22;54382;53.524;49.326;2022-07-06T02:37:36;28.90;36.60
67549;DHT22;54382;53.524;49.326;2022-07-06T02:40:02;29.20;36.10
67549;DHT22;54382;53.524;49.326;2022-07-06T02:42:29;29.40;35.50
67549;DHT22;54382;53.524;49.326;2022-07-06T02:44:56;29.60;35.20
67549;DHT22;54382;53.524;49.326;2022-07-06T02:47:23;29.80;34.80
67549;DHT22;54382;53.524;49.326;2022-07-06T02:49:49;30.10;34.40
67549;DHT22;54382;53.524;49.326;2022-07-06T02:52:16;30.30;34.20
67549;DHT22;54382;53.524;49.326;2022-07-06T02:54:43;30.50;34.00
67549;DHT22;54382;53.524;49.326;2022-07-06T02:57:09;30.60;33.70
67549;DHT22;54382;53.524;49.326;2022-07-06T02:59:36;30.80;33.50
67549;DHT22;54382;53.524;49.326;2022-07-06T03:02:04;31.00;33.20
67549;DHT22;54382;53.524;49.326;2022-07-06T03:04:31;31.10;33.00
67549;DHT22;54382;53.524;49.326;2022-07-06T03:06:58;31.20;32.90
67549;DHT22;54382;53.524;49.326;2022-07-06T03:09:25;31.30;32.70
67549;DHT22;54382;53.524;49.326;2022-07-06T03:11:52;31.50;32.40
67549;DHT22;54382;53.524;49.326;2022-07-06T03:14:19;31.50;32.20
67549;DHT22;54382;53.524;49.326;2022-07-06T03:16:46;31.60;32.00
67549;DHT22;54382;53.524;49.326;2022-07-06T03:19:12;31.70;31.90
67549;DHT22;54382;53.524;49.326;2022-07-06T03:21:39;31.80;31.80
67549;DHT22;54382;53.524;49.326;2022-07-06T03:24:06;31.90;31.50
67549;DHT22;54382;53.524;49.326;2022-07-06T03:26:32;32.10;31.50
67549;DHT22;54382;53.524;49.326;2022-07-06T03:28:59;32.10;31.10
67549;DHT22;54382;53.524;49.326;2022-07-06T03:31:26;32.30;31.30
67549;DHT22;54382;53.524;49.326;2022-07-06T03:33:53;32.50;30.70
67549;DHT22;54382;53.524;49.326;2022-07-06T03:36:19;32.60;30.30
67549;DHT22;54382;53.524;49.326;2022-07-06T03:38:46;32.70;30.20
67549;DHT22;54382;53.524;49.326;2022-07-06T03:41:13;32.80;30.00
67549;DHT22;54382;53.524;49.326;2022-07-06T03:43:39;32.90;29.80
67549;DHT22;54382;53.524;49.326;2022-07-06T03:46:06;32.90;29.70
67549;DHT22;54382;53.524;49.326;2022-07-06T03:48:33;33.00;29.70
67549;DHT22;54382;53.524;49.326;2022-07-06T03:50:59;33.00;29.70
67549;DHT22;54382;53.524;49.326;2022-07-06T03:53:26;33.10;29.40
67549;DHT22;54382;53.524;49.326;2022-07-06T03:55:53;33.10;29.30
67549;DHT22;54382;53.524;49.326;2022-07-06T03:58:38;33.20;29.40
67549;DHT22;54382;53.524;49.326;2022-07-06T04:01:05;33.30;29.30
67549;DHT22;54382;53.524;49.326;2022-07-06T04:03:31;33.30;29.20
67549;DHT22;54382;53.524;49.326;2022-07-06T04:05:58;33.50;29.20
67549;DHT22;54382;53.524;49.326;2022-07-06T04:08:27;33.60;29.20
67549;DHT22;54382;53.524;49.326;2022-07-06T04:10:54;33.70;28.90
67549;DHT22;54382;53.524;49.326;2022-07-06T04:13:20;33.80;28.70
67549;DHT22;54382;53.524;49.326;2022-07-06T04:15:47;33.80;28.60
67549;DHT22;54382;53.524;49.326;2022-07-06T04:18:14;33.90;28.50
67549;DHT22;54382;53.524;49.326;2022-07-06T04:20:40;34.00;28.20
67549;DHT22;54382;53.524;49.326;2022-07-06T04:23:07;34.00;28.50
67549;DHT22;54382;53.524;49.326;2022-07-06T04:25:34;34.10;28.30
67549;DHT22;54382;53.524;49.326;2022-07-06T04:28:01;34.30;28.30
67549;DHT22;54382;53.524;49.326;2022-07-06T04:30:27;34.40;28.30
67549;DHT22;54382;53.524;49.326;2022-07-06T04:32:54;34.60;28.20
67549;DHT22;54382;53.524;49.326;2022-07-06T04:35:21;34.70;27.90
67549;DHT22;54382;53.524;49.326;2022-07-06T04:37:48;34.90;27.90
67549;DHT22;54382;53.524;49.326;2022-07-06T04:40:14;35.00;27.90
67549;DHT22;54382;53.524;49.326;2022-07-06T04:42:41;35.10;27.60
67549;DHT22;54382;53.524;49.326;2022-07-06T04:45:08;35.20;27.60
67549;DHT22;54382;53.524;49.326;2022-07-06T04:47:36;35.30;27.60
67549;DHT22;54382;53.524;49.326;2022-07-06T04:50:03;35.30;27.50
67549;DHT22;54382;53.524;49.326;2022-07-06T04:52:31;35.30;27.50
67549;DHT22;54382;53.524;49.326;2022-07-06T04:54:58;35.40;27.40
67549;DHT22;54382;53.524;49.326;2022-07-06T04:57:24;35.40;27.40
67549;DHT22;54382;53.524;49.326;2022-07-06T04:59:52;35.50;27.70
67549;DHT22;54382;53.524;49.326;2022-07-06T05:02:19;35.40;27.30
67549;DHT22;54382;53.524;49.326;2022-07-06T05:04:45;35.40;27.30
67549;DHT22;54382;53.524;49.326;2022-07-06T05:07:12;35.50;27.20
67549;DHT22;54382;53.524;49.326;2022-07-06T05:09:39;35.60;27.20
67549;DHT22;54382;53.524;49.326;2022-07-06T05:12:06;35.70;26.60
67549;DHT22;54382;53.524;49.326;2022-07-06T05:14:34;35.70;26.30
67549;DHT22;54382;53.524;49.326;2022-07-06T05:17:01;35.60;26.10
67549;DHT22;54382;53.524;49.326;2022-07-06T05:19:29;35.60;25.80
67549;DHT22;54382;53.524;49.326;2022-07-06T05:21:56;35.50;25.50
67549;DHT22;54382;53.524;49.326;2022-07-06T05:24:22;35.40;25.90
67549;DHT22;54382;53.524;49.326;2022-07-06T05:26:49;35.40;25.90
67549;DHT22;54382;53.524;49.326;2022-07-06T05:29:16;35.40;25.70
67549;DHT22;54382;53.524;49.326;2022-07-06T05:31:42;35.30;25.80
67549;DHT22;54382;53.524;49.326;2022-07-06T05:34:09;35.30;25.70
67549;DHT22;54382;53.524;49.326;2022-07-06T05:36:36;35.30;25.50
67549;DHT22;54382;53.524;49.326;2022-07-06T05:39:02;35.20;25.50
67549;DHT22;54382;53.524;49.326;2022-07-06T05:41:29;35.20;25.60
67549;DHT22;54382;53.524;49.326;2022-07-06T05:43:56;35.30;25.20
67549;DHT22;54382;53.524;49.326;2022-07-06T05:46:23;35.40;25.10
67549;DHT22;54382;53.524;49.326;2022-07-06T05:48:49;35.40;24.90
67549;DHT22;54382;53.524;49.326;2022-07-06T05:51:34;35.50;25.10
67549;DHT22;54382;53.524;49.326;2022-07-06T05:54:01;35.60;25.00
67549;DHT22;54382;53.524;49.326;2022-07-06T05:56:27;35.70;24.90
67549;DHT22;54382;53.524;49.326;2022-07-06T05:58:55;35.80;25.00
67549;DHT22;54382;53.524;49.326;2022-07-06T06:01:22;35.80;25.00
67549;DHT22;54382;53.524;49.326;2022-07-06T06:03:48;35.70;25.00
67549;DHT22;54382;53.524;49.326;2022-07-06T06:06:15;35.70;25.10
67549;DHT22;54382;53.524;49.326;2022-07-06T06:08:42;35.70;25.30
67549;DHT22;54382;53.524;49.326;2022-07-06T06:11:08;35.70;25.50
67549;DHT22;54382;53.524;49.326;2022-07-06T06:13:35;35.80;25.50
67549;DHT22;54382;53.524;49.326;2022-07-06T06:16:02;35.80;25.50
67549;DHT22;54382;53.524;49.326;2022-07-06T06:18:29;35.80;25.30
67549;DHT22;54382;53.524;49.326;2022-07-06T06:20:55;35.80;25.20
67549;DHT22;54382;53.524;49.326;2022-07-06T06:23:22;35.70;25.30
67549;DHT22;54382;53.524;49.326;2022-07-06T06:25:49;35.70;25.10
67549;DHT22;54382;53.524;49.326;2022-07-06T06:28:15;35.60;24.80
67549;DHT22;54382;53.524;49.326;2022-07-06T06:30:42;35.40;25.00
67549;DHT22;54382;53.524;49.326;2022-07-06T06:33:18;35.40;25.30
67549;DHT22;54382;53.524;49.326;2022-07-06T06:35:52;35.40;25.50
67549;DHT22;54382;53.524;49.326;2022-07-06T06:38:23;35.40;25.10
67549;DHT22;54382;53.524;49.326;2022-07-06T06:40:53;35.40;24.70
67549;DHT22;54382;53.524;49.326;2022-07-06T06:43:20;35.40;24.90
67549;DHT22;54382;53.524;49.326;2022-07-06T06:45:46;35.40;24.80
67549;DHT22;54382;53.524;49.326;2022-07-06T06:48:13;35.40;24.50
67549;DHT22;54382;53.524;49.326;2022-07-06T06:50:40;35.40;24.80
67549;DHT22;54382;53.524;49.326;2022-07-06T06:53:06;35.40;24.40
67549;DHT22;54382;53.524;49.326;2022-07-06T06:55:33;35.50;23.70
67549;DHT22;54382;53.524;49.326;2022-07-06T06:58:00;35.50;23.60
67549;DHT22;54382;53.524;49.326;2022-07-06T07:00:26;35.40;23.60
67549;DHT22;54382;53.524;49.326;2022-07-06T07:02:53;35.40;23.80
67549;DHT22;54382;53.524;49.326;2022-07-06T07:05:20;35.30;23.80
67549;DHT22;54382;53.524;49.326;2022-07-06T07:07:47;35.20;24.10
67549;DHT22;54382;53.524;49.326;2022-07-06T07:10:13;35.10;23.80
67549;DHT22;54382;53.524;49.326;2022-07-06T07:12:45;35.10;23.50
67549;DHT22;54382;53.524;49.326;2022-07-06T07:15:12;35.00;23.50
67549;DHT22;54382;53.524;49.326;2022-07-06T07:17:40;35.00;23.60
67549;DHT22;54382;53.524;49.326;2022-07-06T07:20:07;35.10;23.80
67549;DHT22;54382;53.524;49.326;2022-07-06T07:22:35;35.10;23.60
67549;DHT22;54382;53.524;49.326;2022-07-06T07:25:02;35.10;23.50
67549;DHT22;54382;53.524;49.326;2022-07-06T07:27:29;35.10;23.30
67549;DHT22;54382;53.524;49.326;2022-07-06T07:29:56;35.00;23.50
67549;DHT22;54382;53.524;49.326;2022-07-06T07:32:22;34.90;23.60
67549;DHT22;54382;53.524;49.326;2022-07-06T07:34:49;34.80;23.60
67549;DHT22;54382;53.524;49.326;2022-07-06T07:37:16;34.70;23.60
67549;DHT22;54382;53.524;49.326;2022-07-06T07:39:42;34.70;23.30
67549;DHT22;54382;53.524;49.326;2022-07-06T07:42:09;34.70;23.50
67549;DHT22;54382;53.524;49.326;2022-07-06T07:44:36;34.60;23.90
67549;DHT22;54382;53.524;49.326;2022-07-06T07:47:05;34.80;23.80
67549;DHT22;54382;53.524;49.326;2022-07-06T07:49:31;34.90;24.00
67549;DHT22;54382;53.524;49.326;2022-07-06T07:51:58;35.10;23.90
67549;DHT22;54382;53.524;49.326;2022-07-06T07:54:25;35.20;23.70
67549;DHT22;54382;53.524;49.326;2022-07-06T07:56:51;35.20;23.60
67549;DHT22;54382;53.524;49.326;2022-07-06T07:59:18;35.20;23.60
67549;DHT22;54382;53.524;49.326;2022-07-06T08:01:45;35.10;23.70
67549;DHT22;54382;53.524;49.326;2022-07-06T08:04:11;35.00;24.50
67549;DHT22;54382;53.524;49.326;2022-07-06T08:06:38;35.10;24.10
67549;DHT22;54382;53.524;49.326;2022-07-06T08:09:05;35.10;24.00
67549;DHT22;54382;53.524;49.326;2022-07-06T08:11:36;35.20;24.70
67549;DHT22;54382;53.524;49.326;2022-07-06T08:14:03;35.20;24.20
67549;DHT22;54382;53.524;49.326;2022-07-06T08:16:32;35.30;24.10
67549;DHT22;54382;53.524;49.326;2022-07-06T08:18:59;35.40;24.20
67549;DHT22;54382;53.524;49.326;2022-07-06T08:21:26;35.40;24.00
67549;DHT22;54382;53.524;49.326;2022-07-06T08:23:54;35.60;24.00
67549;DHT22;54382;53.524;49.326;2022-07-06T08:26:22;35.70;24.00
67549;DHT22;54382;53.524;49.326;2022-07-06T08:28:49;35.80;24.10
67549;DHT22;54382;53.524;49.326;2022-07-06T08:31:16;35.70;23.90
67549;DHT22;54382;53.524;49.326;2022-07-06T08:33:43;35.70;23.80
67549;DHT22;54382;53.524;49.326;2022-07-06T08:36:09;35.70;23.70
67549;DHT22;54382;53.524;49.326;2022-07-06T08:38:36;35.60;23.40
67549;DHT22;54382;53.524;49.326;2022-07-06T08:41:04;35.60;23.80
67549;DHT22;54382;53.524;49.326;2022-07-06T08:43:33;35.60;23.70
67549;DHT22;54382;53.524;49.326;2022-07-06T08:46:01;35.70;23.60
67549;DHT22;54382;53.524;49.326;2022-07-06T08:48:36;35.60;23.70
67549;DHT22;54382;53.524;49.326;2022-07-06T08:51:06;35.60;23.70
67549;DHT22;54382;53.524;49.326;2022-07-06T08:53:34;35.60;23.90
67549;DHT22;54382;53.524;49.326;2022-07-06T08:56:03;35.60;23.90
67549;DHT22;54382;53.524;49.326;2022-07-06T08:58:30;35.60;24.00
67549;DHT22;54382;53.524;49.326;2022-07-06T09:00:59;35.70;24.10
67549;DHT22;54382;53.524;49.326;2022-07-06T09:03:28;35.80;24.00
67549;DHT22;54382;53.524;49.326;2022-07-06T09:05:58;35.80;23.60
67549;DHT22;54382;53.524;49.326;2022-07-06T09:08:28;36.00;23.60
67549;DHT22;54382;53.524;49.326;2022-07-06T09:10:57;36.00;23.30
67549;DHT22;54382;53.524;49.326;2022-07-06T09:13:24;36.00;23.30
67549;DHT22;54382;53.524;49.326;2022-07-06T09:15:51;36.00;23.30
67549;DHT22;54382;53.524;49.326;2022-07-06T09:18:17;36.00;23.60
67549;DHT22;54382;53.524;49.326;2022-07-06T09:20:47;36.10;23.60
67549;DHT22;54382;53.524;49.326;2022-07-06T09:23:16;36.20;23.70
67549;DHT22;54382;53.524;49.326;2022-07-06T09:25:48;36.30;23.70
67549;DHT22;54382;53.524;49.326;2022-07-06T09:28:15;36.30;23.50
67549;DHT22;54382;53.524;49.326;2022-07-06T09:30:42;36.30;23.50
67549;DHT22;54382;53.524;49.326;2022-07-06T09:33:09;36.20;23.50
67549;DHT22;54382;53.524;49.326;2022-07-06T09:35:38;36.30;23.50
67549;DHT22;54382;53.524;49.326;2022-07-06T09:38:12;36.40;23.50
67549;DHT22;54382;53.524;49.326;2022-07-06T09:40:45;36.50;23.60
67549;DHT22;54382;53.524;49.326;2022-07-06T09:43:21;36.50;23.70
67549;DHT22;54382;53.524;49.326;2022-07-06T09:45:52;36.50;23.50
67549;DHT22;54382;53.524;49.326;2022-07-06T09:48:27;36.50;23.40
67549;DHT22;54382;53.524;49.326;2022-07-06T09:50:58;36.50;23.20
67549;DHT22;54382;53.524;49.326;2022-07-06T09:53:28;36.40;23.70
67549;DHT22;54382;53.524;49.326;2022-07-06T09:55:56;36.40;23.60
67549;DHT22;54382;53.524;49.326;2022-07-06T09:58:28;36.30;23.50
67549;DHT22;54382;53.524;49.326;2022-07-06T10:00:55;36.30;23.80
67549;DHT22;54382;53.524;49.326;2022-07-06T10:03:21;36.40;23.80
67549;DHT22;54382;53.524;49.326;2022-07-06T10:05:48;36.50;23.70
67549;DHT22;54382;53.524;49.326;2022-07-06T10:08:16;36.50;23.70
67549;DHT22;54382;53.524;49.326;2022-07-06T10:10:44;36.60;23.70
67549;DHT22;54382;53.524;49.326;2022-07-06T10:13:11;36.70;23.80
67549;DHT22;54382;53.524;49.326;2022-07-06T10:15:40;36.70;23.40
67549;DHT22;54382;53.524;49.326;2022-07-06T10:18:08;36.80;23.20
67549;DHT22;54382;53.524;49.326;2022-07-06T10:20:37;36.90;23.30
67549;DHT22;54382;53.524;49.326;2022-07-06T10:23:07;36.90;23.60
67549;DHT22;54382;53.524;49.326;2022-07-06T10:25:34;36.90;23.40
67549;DHT22;54382;53.524;49.326;2022-07-06T10:28:02;36.90;23.40
67549;DHT22;54382;53.524;49.326;2022-07-06T10:30:30;37.00;23.50
67549;DHT22;54382;53.524;49.326;2022-07-06T10:32:58;37.00;23.50
67549;DHT22;54382;53.524;49.326;2022-07-06T10:35:26;36.90;23.60
67549;DHT22;54382;53.524;49.326;2022-07-06T10:38:06;36.80;23.80
67549;DHT22;54382;53.524;49.326;2022-07-06T10:40:40;36.80;23.50
67549;DHT22;54382;53.524;49.326;2022-07-06T10:43:55;36.80;23.40
67549;DHT22;54382;53.524;49.326;2022-07-06T10:46:23;36.70;23.20
67549;DHT22;54382;53.524;49.326;2022-07-06T10:48:50;36.80;23.40
67549;DHT22;54382;53.524;49.326;2022-07-06T10:51:27;36.80;23.30
67549;DHT22;54382;53.524;49.326;2022-07-06T10:54:15;36.70;23.60
67549;DHT22;54382;53.524;49.326;2022-07-06T10:56:50;36.60;23.20
67549;DHT22;54382;53.524;49.326;2022-07-06T10:59:23;36.50;23.10
67549;DHT22;54382;53.524;49.326;2022-07-06T11:02:15;36.40;23.20
67549;DHT22;54382;53.524;49.326;2022-07-06T11:04:45;36.30;23.60
67549;DHT22;54382;53.524;49.326;2022-07-06T11:07:14;36.30;23.40
67549;DHT22;54382;53.524;49.326;2022-07-06T11:09:55;36.20;23.10
67549;DHT22;54382;53.524;49.326;2022-07-06T11:12:23;36.30;23.00
67549;DHT22;54382;53.524;49.326;2022-07-06T11:14:51;36.30;23.20
67549;DHT22;54382;53.524;49.326;2022-07-06T11:17:19;36.40;23.10
67549;DHT22;54382;53.524;49.326;2022-07-06T11:20:11;36.40;22.40
67549;DHT22;54382;53.524;49.326;2022-07-06T11:22:38;36.40;23.10
67549;DHT22;54382;53.524;49.326;2022-07-06T11:25:06;36.40;23.50
67549;DHT22;54382;53.524;49.326;2022-07-06T11:27:34;36.50;23.70
67549;DHT22;54382;53.524;49.326;2022-07-06T11:30:01;36.50;22.90
67549;DHT22;54382;53.524;49.326;2022-07-06T11:32:28;36.60;22.80
67549;DHT22;54382;53.524;49.326;2022-07-06T11:34:55;36.60;22.90
67549;DHT22;54382;53.524;49.326;2022-07-06T11:37:22;36.60;23.20
67549;DHT22;54382;53.524;49.326;2022-07-06T11:39:49;36.50;23.20
67549;DHT22;54382;53.524;49.326;2022-07-06T11:42:17;36.50;23.00
67549;DHT22;54382;53.524;49.326;2022-07-06T11:44:45;36.50;22.50
67549;DHT22;54382;53.524;49.326;2022-07-06T11:47:12;36.50;22.40
67549;DHT22;54382;53.524;49.326;2022-07-06T11:49:43;36.50;22.80
67549;DHT22;54382;53.524;49.326;2022-07-06T11:52:13;36.50;23.30
67549;DHT22;54382;53.524;49.326;2022-07-06T11:54:41;36.50;23.60
67549;DHT22;54382;53.524;49.326;2022-07-06T11:57:10;36.60;23.70
67549;DHT22;54382;53.524;49.326;2022-07-06T11:59:40;36.60;23.80
67549;DHT22;54382;53.524;49.326;2022-07-06T12:02:09;36.60;24.00
67549;DHT22;54382;53.524;49.326;2022-07-06T12:04:40;36.60;24.30
67549;DHT22;54382;53.524;49.326;2022-07-06T12:07:14;36.60;24.30
67549;DHT22;54382;53.524;49.326;2022-07-06T12:09:45;36.60;24.40
67549;DHT22;54382;53.524;49.326;2022-07-06T12:12:13;36.60;24.60
67549;DHT22;54382;53.524;49.326;2022-07-06T12:14:41;36.70;24.50
67549;DHT22;54382;53.524;49.326;2022-07-06T12:17:15;36.70;24.60
67549;DHT22;54382;53.524;49.326;2022-07-06T12:19:43;36.70;24.70
67549;DHT22;54382;53.524;49.326;2022-07-06T12:22:10;36.70;24.50
67549;DHT22;54382;53.524;49.326;2022-07-06T12:24:41;36.70;24.50
67549;DHT22;54382;53.524;49.326;2022-07-06T12:27:18;36.80;24.60
67549;DHT22;54382;53.524;49.326;2022-07-06T12:29:47;36.90;24.60
67549;DHT22;54382;53.524;49.326;2022-07-06T12:32:19;36.90;24.30
67549;DHT22;54382;53.524;49.326;2022-07-06T12:35:03;36.90;24.30
67549;DHT22;54382;53.524;49.326;2022-07-06T12:37:30;36.70;24.30
67549;DHT22;54382;53.524;49.326;2022-07-06T12:39:56;36.70;24.30
67549;DHT22;54382;53.524;49.326;2022-07-06T12:42:23;36.60;24.50
67549;DHT22;54382;53.524;49.326;2022-07-06T12:44:51;36.50;24.50
67549;DHT22;54382;53.524;49.326;2022-07-06T12:47:21;36.50;24.60
67549;DHT22;54382;53.524;49.326;2022-07-06T12:50:04;36.50;24.70
67549;DHT22;54382;53.524;49.326;2022-07-06T12:52:33;36.50;24.60
67549;DHT22;54382;53.524;49.326;2022-07-06T12:55:01;36.60;24.40
67549;DHT22;54382;53.524;49.326;2022-07-06T12:57:46;36.60;24.40
67549;DHT22;54382;53.524;49.326;2022-07-06T13:00:14;36.60;24.50
67549;DHT22;54382;53.524;49.326;2022-07-06T13:02:45;36.70;24.20
67549;DHT22;54382;53.524;49.326;2022-07-06T13:05:14;36.70;24.20
67549;DHT22;54382;53.524;49.326;2022-07-06T13:07:47;36.80;24.30
67549;DHT22;54382;53.524;49.326;2022-07-06T13:10:15;37.00;24.10
67549;DHT22;54382;53.524;49.326;2022-07-06T13:12:42;37.10;24.10
67549;DHT22;54382;53.524;49.326;2022-07-06T13:15:10;37.10;23.90
67549;DHT22;54382;53.524;49.326;2022-07-06T13:17:37;37.10;23.90
67549;DHT22;54382;53.524;49.326;2022-07-06T13:20:08;37.10;23.90
67549;DHT22;54382;53.524;49.326;2022-07-06T13:22:37;37.10;24.10
67549;DHT22;54382;53.524;49.326;2022-07-06T13:25:04;37.20;24.10
67549;DHT22;54382;53.524;49.326;2022-07-06T13:27:32;37.20;23.80
67549;DHT22;54382;53.524;49.326;2022-07-06T13:29:58;37.10;23.80
67549;DHT22;54382;53.524;49.326;2022-07-06T13:32:25;37.10;23.80
67549;DHT22;54382;53.524;49.326;2022-07-06T13:34:52;37.10;24.00
67549;DHT22;54382;53.524;49.326;2022-07-06T13:37:20;37.00;23.70
67549;DHT22;54382;53.524;49.326;2022-07-06T13:39:47;37.00;23.90
67549;DHT22;54382;53.524;49.326;2022-07-06T13:42:13;36.90;24.00
67549;DHT22;54382;53.524;49.326;2022-07-06T13:44:40;36.90;24.00
67549;DHT22;54382;53.524;49.326;2022-07-06T13:47:07;36.80;24.00
67549;DHT22;54382;53.524;49.326;2022-07-06T13:49:34;36.80;24.00
67549;DHT22;54382;53.524;49.326;2022-07-06T13:52:01;36.70;23.70
67549;DHT22;54382;53.524;49.326;2022-07-06T13:54:31;36.60;23.70
67549;DHT22;54382;53.524;49.326;2022-07-06T13:56:58;36.60;24.20
67549;DHT22;54382;53.524;49.326;2022-07-06T13:59:24;36.60;24.00
67549;DHT22;54382;53.524;49.326;2022-07-06T14:01:51;36.70;24.10
67549;DHT22;54382;53.524;49.326;2022-07-06T14:04:18;36.70;23.90
67549;DHT22;54382;53.524;49.326;2022-07-06T14:06:44;36.70;23.90
67549;DHT22;54382;53.524;49.326;2022-07-06T14:09:11;36.70;23.90
67549;DHT22;54382;53.524;49.326;2022-07-06T14:11:38;36.70;23.90
67549;DHT22;54382;53.524;49.326;2022-07-06T14:14:04;36.70;24.00
67549;DHT22;54382;53.524;49.326;2022-07-06T14:16:36;36.70;24.00
67549;DHT22;54382;53.524;49.326;2022-07-06T14:19:02;36.70;24.00
67549;DHT22;54382;53.524;49.326;2022-07-06T14:21:29;36.70;24.10
67549;DHT22;54382;53.524;49.326;2022-07-06T14:23:56;36.70;24.10
67549;DHT22;54382;53.524;49.326;2022-07-06T14:26:23;36.70;24.10
67549;DHT22;54382;53.524;49.326;2022-07-06T14:28:50;36.70;24.10
67549;DHT22;54382;53.524;49.326;2022-07-06T14:31:17;36.80;24.20
67549;DHT22;54382;53.524;49.326;2022-07-06T14:33:44;36.90;24.20
67549;DHT22;54382;53.524;49.326;2022-07-06T14:36:10;37.00;24.00
67549;DHT22;54382;53.524;49.326;2022-07-06T14:38:37;37.10;24.00
67549;DHT22;54382;53.524;49.326;2022-07-06T14:41:04;37.10;23.90
67549;DHT22;54382;53.524;49.326;2022-07-06T14:43:30;37.00;23.90
67549;DHT22;54382;53.524;49.326;2022-07-06T14:45:57;37.00;23.80
67549;DHT22;54382;53.524;49.326;2022-07-06T14:48:23;37.00;23.70
67549;DHT22;54382;53.524;49.326;2022-07-06T14:50:50;37.10;23.90
67549;DHT22;54382;53.524;49.326;2022-07-06T14:53:17;37.10;23.90
67549;DHT22;54382;53.524;49.326;2022-07-06T14:55:46;37.10;24.00
67549;DHT22;54382;53.524;49.326;2022-07-06T14:58:13;37.10;23.70
67549;DHT22;54382;53.524;49.326;2022-07-06T15:00:44;37.10;23.70
67549;DHT22;54382;53.524;49.326;2022-07-06T15:03:12;37.10;23.50
67549;DHT22;54382;53.524;49.326;2022-07-06T15:05:38;37.20;23.70
67549;DHT22;54382;53.524;49.326;2022-07-06T15:08:06;37.10;23.70
67549;DHT22;54382;53.524;49.326;2022-07-06T15:10:32;37.10;23.70
67549;DHT22;54382;53.524;49.326;2022-07-06T15:12:59;37.00;23.70
67549;DHT22;54382;53.524;49.326;2022-07-06T15:15:26;36.90;23.80
67549;DHT22;54382;53.524;49.326;2022-07-06T15:17:52;36.80;23.90
67549;DHT22;54382;53.524;49.326;2022-07-06T15:20:19;36.70;24.00